createdAt,value
2022-11-14T00:01:12.880Z,5.75
2022-11-14T00:03:40.230Z,6.75
2022-11-14T00:06:07.968Z,6.25
2022-11-14T00:08:35.458Z,5.97
2022-11-14T00:11:02.847Z,6.47
2022-11-14T00:13:29.903Z,5.95
2022-11-14T00:15:57.029Z,6.10
2022-11-14T00:18:24.421Z,5.22
2022-11-14T00:20:52.919Z,5.07
2022-11-14T00:23:21.377Z,5.90
2022-11-14T00:25:49.182Z,5.18
2022-11-14T00:28:16.510Z,6.30
2022-11-14T00:30:48.007Z,5.22
2022-11-14T00:33:20.160Z,5.70
2022-11-14T00:35:52.107Z,5.70
2022-11-14T00:38:19.119Z,6.00
2022-11-14T00:40:46.274Z,5.68
2022-11-14T00:43:13.476Z,5.80
2022-11-14T00:45:40.419Z,5.53
2022-11-14T00:48:07.435Z,5.85
2022-11-14T00:50:34.507Z,6.43
2022-11-14T00:53:01.547Z,5.68
2022-11-14T00:55:28.663Z,6.05
2022-11-14T00:57:55.747Z,6.63
2022-11-14T01:00:22.891Z,6.43
2022-11-14T01:02:49.943Z,5.55
2022-11-14T01:05:17.186Z,5.93
2022-11-14T01:07:44.191Z,6.03
2022-11-14T01:10:11.309Z,6.00
2022-11-14T01:12:38.416Z,5.00
2022-11-14T01:15:06.032Z,6.75
2022-11-14T01:17:33.192Z,6.55
2022-11-14T01:20:01.143Z,6.13
2022-11-14T01:22:30.179Z,6.72
2022-11-14T01:24:58.728Z,6.57
2022-11-14T01:27:26.275Z,6.60
2022-11-14T01:29:53.324Z,5.97
2022-11-14T01:32:20.371Z,7.07
2022-11-14T01:34:47.481Z,6.10
2022-11-14T01:37:14.905Z,6.18
2022-11-14T01:39:41.991Z,5.90
2022-11-14T01:42:09.050Z,6.20
2022-11-14T01:44:49.814Z,5.68
2022-11-14T01:47:21.596Z,5.15
2022-11-14T01:49:53.207Z,6.38
2022-11-14T01:52:25.687Z,6.38
2022-11-14T01:54:55.376Z,5.95
2022-11-14T01:57:28.104Z,6.55
2022-11-14T01:59:57.885Z,6.90
2022-11-14T02:02:26.418Z,5.78
2022-11-14T02:05:00.994Z,6.07
2022-11-14T02:07:31.529Z,6.30
2022-11-14T02:10:02.147Z,6.28
2022-11-14T02:12:29.827Z,6.15
2022-11-14T02:14:58.797Z,6.35
2022-11-14T02:17:31.024Z,6.63
2022-11-14T02:20:11.234Z,6.15
2022-11-14T02:22:40.785Z,5.53
2022-11-14T02:25:09.408Z,5.65
2022-11-14T02:27:38.543Z,5.38
2022-11-14T02:30:08.694Z,5.32
2022-11-14T02:32:57.057Z,4.75
2022-11-14T02:35:22.773Z,5.30
2022-11-14T02:37:49.808Z,5.32
2022-11-14T02:40:17.219Z,5.40
2022-11-14T02:42:44.307Z,6.00
2022-11-14T02:45:12.504Z,8.13
2022-11-14T02:47:39.537Z,7.40
2022-11-14T02:50:06.875Z,6.80
2022-11-14T02:52:34.037Z,6.68
2022-11-14T02:55:01.180Z,5.90
2022-11-14T02:57:28.233Z,6.75
2022-11-14T02:59:55.337Z,6.30
2022-11-14T03:02:22.386Z,6.80
2022-11-14T03:04:49.672Z,6.53
2022-11-14T03:07:16.860Z,5.35
2022-11-14T03:09:44.045Z,5.75
2022-11-14T03:12:11.182Z,6.55
2022-11-14T03:14:38.340Z,5.20
2022-11-14T03:17:05.304Z,5.80
2022-11-14T03:19:32.320Z,5.85
2022-11-14T03:21:59.357Z,5.63
2022-11-14T03:24:26.389Z,5.57
2022-11-14T03:26:53.523Z,6.05
2022-11-14T03:29:20.627Z,5.82
2022-11-14T03:31:47.644Z,5.50
2022-11-14T03:34:14.870Z,5.88
2022-11-14T03:36:42.008Z,5.95
2022-11-14T03:39:09.553Z,6.43
2022-11-14T03:41:36.587Z,6.22
2022-11-14T03:44:03.989Z,6.30
2022-11-14T03:46:31.121Z,6.00
2022-11-14T03:48:58.148Z,5.47
2022-11-14T03:51:25.783Z,5.40
2022-11-14T03:53:52.812Z,5.45
2022-11-14T03:56:19.837Z,5.30
2022-11-14T03:58:46.886Z,6.43
2022-11-14T04:01:14.135Z,6.15
2022-11-14T04:03:41.136Z,5.80
2022-11-14T04:06:08.460Z,5.93
2022-11-14T04:08:35.488Z,5.75
2022-11-14T04:11:02.518Z,5.03
2022-11-14T04:13:30.592Z,6.25
2022-11-14T04:15:58.597Z,5.30
2022-11-14T04:18:26.481Z,6.05
2022-11-14T04:20:53.909Z,6.07
2022-11-14T04:23:20.954Z,5.50
2022-11-14T04:25:48.059Z,6.10
2022-11-14T04:28:15.272Z,6.32
2022-11-14T04:30:42.428Z,5.70
2022-11-14T04:33:09.416Z,5.63
2022-11-14T04:35:36.506Z,6.03
2022-11-14T04:38:04.015Z,6.38
2022-11-14T04:40:31.079Z,6.07
2022-11-14T04:42:58.129Z,6.00
2022-11-14T04:45:25.177Z,5.45
2022-11-14T04:47:52.262Z,5.80
2022-11-14T04:50:19.321Z,6.30
2022-11-14T04:52:46.372Z,6.93
2022-11-14T04:55:13.439Z,6.38
2022-11-14T04:57:40.769Z,6.78
2022-11-14T05:00:08.574Z,6.07
2022-11-14T05:02:35.581Z,6.47
2022-11-14T05:05:02.684Z,6.32
2022-11-14T05:07:29.722Z,6.78
2022-11-14T05:09:56.746Z,7.22
2022-11-14T05:12:23.810Z,6.55
2022-11-14T05:14:50.798Z,7.38
2022-11-14T05:17:17.781Z,8.15
2022-11-14T05:19:44.821Z,7.15
2022-11-14T05:22:11.814Z,6.70
2022-11-14T05:24:38.850Z,6.65
2022-11-14T05:27:06.052Z,6.75
2022-11-14T05:29:33.069Z,7.05
2022-11-14T05:32:01.007Z,7.15
2022-11-14T05:34:34.760Z,6.97
2022-11-14T05:37:04.064Z,6.50
2022-11-14T05:39:31.618Z,7.15
2022-11-14T05:41:58.689Z,7.70
2022-11-14T05:44:25.779Z,7.32
2022-11-14T05:46:52.805Z,7.20
2022-11-14T05:49:22.080Z,6.22
2022-11-14T05:51:49.379Z,6.70
2022-11-14T05:54:16.447Z,7.47
2022-11-14T05:56:43.696Z,7.45
2022-11-14T05:59:10.660Z,7.88
2022-11-14T06:01:37.697Z,7.80
2022-11-14T06:04:06.901Z,7.57
2022-11-14T06:06:34.001Z,7.47
2022-11-14T06:09:01.032Z,7.50
2022-11-14T06:11:28.145Z,6.55
2022-11-14T06:13:55.139Z,7.15
2022-11-14T06:16:22.129Z,6.20
2022-11-14T06:18:49.337Z,6.90
2022-11-14T06:21:22.036Z,6.95
2022-11-14T06:23:49.949Z,5.95
2022-11-14T06:26:24.550Z,6.50
2022-11-14T06:28:52.856Z,6.93
2022-11-14T06:31:22.827Z,6.90
2022-11-14T06:33:50.164Z,7.00
2022-11-14T06:36:17.883Z,7.80
2022-11-14T06:38:45.062Z,7.40
2022-11-14T06:41:14.376Z,7.03
2022-11-14T06:43:46.197Z,7.28
2022-11-14T06:46:15.826Z,7.25
2022-11-14T06:48:43.894Z,7.32
2022-11-14T06:51:13.631Z,7.25
2022-11-14T06:53:41.557Z,7.38
2022-11-14T06:56:11.769Z,7.22
2022-11-14T06:58:41.731Z,7.07
2022-11-14T07:01:20.210Z,7.18
2022-11-14T07:03:47.716Z,7.85
2022-11-14T07:06:17.993Z,6.72
2022-11-14T07:08:45.032Z,7.32
2022-11-14T07:11:23.298Z,7.30
2022-11-14T07:13:51.928Z,7.38
2022-11-14T07:16:20.301Z,7.38
2022-11-14T07:18:47.327Z,7.40
2022-11-14T07:21:14.452Z,7.40
2022-11-14T07:23:42.589Z,7.25
2022-11-14T07:26:11.691Z,7.45
2022-11-14T07:28:41.632Z,7.70
2022-11-14T07:31:12.761Z,7.60
2022-11-14T07:33:40.223Z,7.40
2022-11-14T07:36:08.196Z,7.15
2022-11-14T07:38:36.589Z,7.60
2022-11-14T07:41:23.381Z,7.75
2022-11-14T07:43:50.855Z,6.65
2022-11-14T07:46:19.019Z,6.75
2022-11-14T07:48:46.492Z,6.13
2022-11-14T07:51:19.933Z,5.65
2022-11-14T07:53:47.411Z,5.57
2022-11-14T07:56:14.464Z,6.63
2022-11-14T07:58:42.780Z,6.38
2022-11-14T08:01:11.757Z,6.18
2022-11-14T08:03:45.107Z,6.20
2022-11-14T08:06:15.321Z,6.70
2022-11-14T08:08:42.410Z,6.65
2022-11-14T08:11:09.984Z,6.97
2022-11-14T08:13:37.661Z,6.22
2022-11-14T08:16:13.516Z,6.40
2022-11-14T08:18:41.667Z,7.18
2022-11-14T08:21:08.981Z,6.95
2022-11-14T08:23:36.126Z,7.40
2022-11-14T08:26:03.748Z,7.70
2022-11-14T08:28:31.291Z,7.20
2022-11-14T08:31:02.689Z,7.32
2022-11-14T08:33:30.671Z,6.32
2022-11-14T08:36:02.085Z,6.75
2022-11-14T08:38:29.527Z,7.25
2022-11-14T08:41:02.094Z,6.57
2022-11-14T08:43:30.062Z,6.93
2022-11-14T08:46:01.523Z,7.30
2022-11-14T08:48:29.448Z,7.55
2022-11-14T08:50:56.857Z,7.15
2022-11-14T08:53:24.221Z,7.10
2022-11-14T08:55:51.458Z,8.15
2022-11-14T08:58:18.511Z,7.15
2022-11-14T09:00:45.944Z,7.93
2022-11-14T09:03:16.845Z,8.57
2022-11-14T09:05:43.966Z,7.22
2022-11-14T09:08:11.054Z,6.95
2022-11-14T09:10:38.927Z,7.22
2022-11-14T09:13:05.930Z,7.20
2022-11-14T09:15:34.590Z,8.07
2022-11-14T09:18:01.682Z,8.32
2022-11-14T09:20:34.196Z,7.55
2022-11-14T09:23:05.299Z,8.00
2022-11-14T09:25:32.451Z,10.02
2022-11-14T09:28:04.946Z,8.48
2022-11-14T09:30:31.960Z,12.95
2022-11-14T09:33:11.706Z,9.25
2022-11-14T09:35:39.112Z,7.88
2022-11-14T09:38:09.196Z,7.15
2022-11-14T09:41:13.551Z,7.32
2022-11-14T09:44:42.583Z,7.57
2022-11-14T09:47:18.087Z,7.25
2022-11-14T09:49:50.057Z,6.82
2022-11-14T09:52:45.312Z,6.60
2022-11-14T09:55:18.844Z,6.85
2022-11-14T09:57:46.938Z,6.72
2022-11-14T10:00:22.841Z,6.43
2022-11-14T10:03:14.160Z,7.10
2022-11-14T10:06:19.147Z,7.53
2022-11-14T10:09:08.902Z,8.45
2022-11-14T10:11:47.537Z,7.90
2022-11-14T10:14:32.649Z,7.50
2022-11-14T10:17:39.855Z,7.85
2022-11-14T10:20:24.406Z,7.65
2022-11-14T10:23:15.790Z,6.65
2022-11-14T10:26:08.285Z,6.80
2022-11-14T10:29:14.110Z,6.43
2022-11-14T10:32:00.361Z,6.00
2022-11-14T10:35:02.523Z,7.00
2022-11-14T10:37:39.619Z,6.53
2022-11-14T10:40:29.556Z,7.15
2022-11-14T10:43:03.491Z,6.28
2022-11-14T10:45:41.248Z,6.97
2022-11-14T10:48:25.334Z,6.80
2022-11-14T10:53:33.015Z,9.60
2022-11-14T10:56:04.981Z,10.23
2022-11-14T10:58:46.815Z,10.50
2022-11-14T11:01:41.138Z,7.90
2022-11-14T11:04:31.231Z,8.27
2022-11-14T11:07:07.447Z,10.75
2022-11-14T11:09:54.093Z,14.43
2022-11-14T11:12:24.353Z,9.77
2022-11-14T11:15:15.750Z,10.73
2022-11-14T11:18:04.810Z,8.35
2022-11-14T11:20:37.666Z,10.60
2022-11-14T11:23:23.310Z,8.67
2022-11-14T11:26:00.624Z,7.15
2022-11-14T11:28:30.649Z,7.63
2022-11-14T11:31:08.968Z,8.70
2022-11-14T11:33:38.511Z,11.15
2022-11-14T11:36:26.968Z,11.38
2022-11-14T11:38:54.141Z,10.45
2022-11-14T11:44:37.110Z,7.90
2022-11-14T11:47:11.810Z,9.63
2022-11-14T11:49:53.303Z,9.52
2022-11-14T11:52:35.667Z,8.90
2022-11-14T11:55:18.349Z,9.68
2022-11-14T11:58:03.070Z,9.02
2022-11-14T12:00:30.606Z,12.77
2022-11-14T12:02:58.195Z,11.93
2022-11-14T12:06:05.336Z,7.60
2022-11-14T12:08:43.252Z,9.60
2022-11-14T12:11:17.034Z,13.43
2022-11-14T12:14:12.799Z,16.02
2022-11-14T12:16:58.204Z,13.82
2022-11-14T12:19:44.212Z,13.32
2022-11-14T12:22:20.631Z,12.25
2022-11-14T12:25:06.546Z,13.13
2022-11-14T12:27:54.910Z,14.32
2022-11-14T12:30:24.862Z,13.18
2022-11-14T12:33:27.198Z,11.50
2022-11-14T12:35:58.552Z,12.52
2022-11-14T12:38:29.227Z,13.25
2022-11-14T12:40:59.296Z,12.48
2022-11-14T12:43:40.614Z,12.00
2022-11-14T12:46:10.088Z,12.70
2022-11-14T12:48:39.457Z,12.35
2022-11-14T12:51:27.023Z,11.45
2022-11-14T12:53:55.730Z,14.48
2022-11-14T12:56:31.822Z,13.30
2022-11-14T12:59:26.628Z,12.05
2022-11-14T13:02:01.224Z,12.70
2022-11-14T13:04:40.238Z,11.00
2022-11-14T13:07:34.487Z,11.73
2022-11-14T13:10:10.012Z,11.10
2022-11-14T13:12:56.510Z,9.85
2022-11-14T13:15:49.508Z,10.43
2022-11-14T13:18:41.241Z,9.27
2022-11-14T13:21:35.569Z,9.52
2022-11-14T13:24:03.409Z,10.95
2022-11-14T13:26:30.436Z,14.02
2022-11-14T13:28:58.228Z,14.18
2022-11-14T13:31:43.201Z,13.25
2022-11-14T13:34:28.309Z,12.02
2022-11-14T13:37:11.386Z,12.57
2022-11-14T13:39:47.460Z,11.87
2022-11-14T13:42:50.372Z,11.70
2022-11-14T13:45:22.938Z,9.38
2022-11-14T13:48:12.012Z,6.60
2022-11-14T13:50:43.577Z,6.22
2022-11-14T13:53:21.168Z,7.57
2022-11-14T13:56:00.462Z,8.10
2022-11-14T13:58:53.790Z,9.35
2022-11-14T14:01:29.580Z,8.90
2022-11-14T14:04:15.419Z,9.82
2022-11-14T14:06:51.575Z,7.88
2022-11-14T14:09:33.241Z,13.15
2022-11-14T14:12:15.235Z,10.95
2022-11-14T14:14:58.002Z,10.70
2022-11-14T14:17:30.878Z,6.40
2022-11-14T14:20:20.212Z,5.93
2022-11-14T14:23:17.753Z,9.68
2022-11-14T14:26:23.388Z,11.43
2022-11-14T14:29:19.753Z,13.43
2022-11-14T14:31:46.800Z,13.68
2022-11-14T14:34:27.529Z,10.52
2022-11-14T14:36:56.856Z,9.25
2022-11-14T14:39:29.272Z,11.98
2022-11-14T14:41:58.577Z,11.77
2022-11-14T14:44:34.024Z,11.05
2022-11-14T14:47:17.940Z,10.70
2022-11-14T14:52:41.697Z,8.25
2022-11-14T14:55:20.174Z,5.85
2022-11-14T14:57:47.284Z,5.07
2022-11-14T15:00:26.431Z,6.45
2022-11-14T15:02:56.104Z,8.48
2022-11-14T15:05:25.760Z,14.18
2022-11-14T15:07:57.460Z,12.02
2022-11-14T15:10:29.959Z,9.98
2022-11-14T15:12:58.655Z,10.02
2022-11-14T15:15:27.205Z,12.05
2022-11-14T15:17:56.406Z,9.77
2022-11-14T15:20:28.889Z,10.65
2022-11-14T15:23:15.546Z,12.48
2022-11-14T15:25:43.141Z,11.43
2022-11-14T15:28:21.903Z,11.73
2022-11-14T15:31:00.414Z,10.95
2022-11-14T15:33:35.477Z,11.07
2022-11-14T15:36:12.006Z,12.27
2022-11-14T15:38:46.421Z,12.05
2022-11-14T15:41:23.585Z,11.10
2022-11-14T15:43:52.115Z,10.07
2022-11-14T15:46:34.452Z,9.80
2022-11-14T15:49:20.764Z,10.57
2022-11-14T15:51:52.126Z,11.30
2022-11-14T15:54:35.729Z,10.13
2022-11-14T15:57:12.847Z,11.63
2022-11-14T15:59:40.200Z,13.10
2022-11-14T16:02:29.763Z,12.55
2022-11-14T16:04:58.793Z,11.13
2022-11-14T16:07:26.288Z,11.48
2022-11-14T16:09:53.365Z,14.35
2022-11-14T16:12:20.532Z,16.90
2022-11-14T16:14:47.645Z,15.75
2022-11-14T16:17:16.847Z,14.45
2022-11-14T16:19:44.227Z,12.90
2022-11-14T16:22:17.606Z,12.07
2022-11-14T16:24:44.756Z,12.40
2022-11-14T16:27:11.767Z,14.80
2022-11-14T16:29:38.885Z,14.40
2022-11-14T16:32:06.027Z,11.82
2022-11-14T16:34:33.061Z,15.10
2022-11-14T16:37:02.093Z,14.40
2022-11-14T16:39:29.729Z,15.35
2022-11-14T16:42:02.938Z,14.90
2022-11-14T16:44:33.427Z,14.02
2022-11-14T16:47:04.209Z,14.40
2022-11-14T16:49:31.298Z,12.43
2022-11-14T16:52:03.224Z,13.27
2022-11-14T16:54:30.330Z,13.50
2022-11-14T16:56:57.798Z,12.15
2022-11-14T16:59:24.839Z,13.95
2022-11-14T17:01:52.024Z,14.27
2022-11-14T17:04:19.186Z,14.68
2022-11-14T17:06:46.338Z,14.13
2022-11-14T17:09:14.546Z,13.10
2022-11-14T17:11:41.829Z,13.60
2022-11-14T17:14:08.902Z,13.80
2022-11-14T17:16:35.905Z,13.80
2022-11-14T17:19:03.389Z,14.63
2022-11-14T17:21:30.454Z,16.75
2022-11-14T17:24:01.571Z,15.10
2022-11-14T17:26:29.485Z,14.70
2022-11-14T17:28:56.480Z,15.35
2022-11-14T17:31:23.550Z,14.00
2022-11-14T17:33:55.875Z,11.65
2022-11-14T17:36:24.518Z,11.65
2022-11-14T17:38:51.998Z,6.55
2022-11-14T17:41:19.342Z,4.85
2022-11-14T17:43:46.533Z,5.28
2022-11-14T17:46:16.939Z,4.35
2022-11-14T17:48:44.946Z,4.75
2022-11-14T17:51:13.966Z,4.57
2022-11-14T17:53:41.453Z,4.30
2022-11-14T17:56:20.596Z,3.70
2022-11-14T17:58:50.604Z,3.70
2022-11-14T18:01:20.927Z,3.42
2022-11-14T18:03:48.670Z,3.67
2022-11-14T18:06:19.425Z,3.45
2022-11-14T18:08:47.091Z,4.18
2022-11-14T18:11:16.120Z,3.47
2022-11-14T18:13:43.395Z,4.00
2022-11-14T18:16:16.441Z,4.38
2022-11-14T18:18:43.784Z,3.70
2022-11-14T18:21:14.468Z,3.83
2022-11-14T18:23:41.605Z,3.58
2022-11-14T18:26:12.950Z,4.30
2022-11-14T18:28:40.569Z,3.35
2022-11-14T18:31:11.076Z,3.90
2022-11-14T18:33:39.087Z,3.88
2022-11-14T18:36:11.872Z,4.10
2022-11-14T18:38:39.081Z,3.63
2022-11-14T18:41:13.094Z,3.30
2022-11-14T18:43:40.690Z,4.40
2022-11-14T18:46:16.827Z,7.45
2022-11-14T18:48:46.906Z,4.85
2022-11-14T18:51:16.903Z,3.85
2022-11-14T18:53:44.114Z,3.58
2022-11-14T18:56:14.712Z,4.15
2022-11-14T18:58:42.832Z,3.78
2022-11-14T19:01:24.398Z,4.05
2022-11-14T19:04:12.148Z,5.07
2022-11-14T19:06:41.361Z,4.70
2022-11-14T19:09:11.828Z,4.45
2022-11-14T19:11:57.819Z,3.78
2022-11-14T19:14:24.802Z,3.75
2022-11-14T19:16:51.884Z,3.88
2022-11-14T19:19:19.083Z,3.88
2022-11-14T19:21:50.630Z,3.50
2022-11-14T19:24:18.466Z,3.92
2022-11-14T19:26:45.972Z,3.78
2022-11-14T19:29:15.999Z,3.90
2022-11-14T19:31:43.616Z,3.28
2022-11-14T19:34:10.976Z,4.28
2022-11-14T19:36:58.853Z,3.88
2022-11-14T19:39:25.222Z,3.90
2022-11-14T19:41:52.368Z,3.75
2022-11-14T19:44:19.418Z,4.88
2022-11-14T19:46:47.989Z,4.43
2022-11-14T19:49:15.755Z,4.32
2022-11-14T19:51:42.979Z,4.32
2022-11-14T19:54:10.921Z,4.10
2022-11-14T19:56:37.952Z,3.78
2022-11-14T19:59:10.998Z,4.25
2022-11-14T20:01:42.375Z,4.00
2022-11-14T20:04:12.486Z,3.33
2022-11-14T20:06:41.785Z,3.80
2022-11-14T20:09:10.582Z,3.70
2022-11-14T20:11:37.812Z,3.50
2022-11-14T20:14:05.916Z,3.65
2022-11-14T20:16:37.268Z,4.03
2022-11-14T20:19:04.953Z,3.90
2022-11-14T20:21:34.654Z,3.72
2022-11-14T20:24:02.141Z,3.60
2022-11-14T20:26:29.269Z,3.80
2022-11-14T20:28:56.376Z,3.38
2022-11-14T20:31:26.351Z,3.50
2022-11-14T20:33:54.496Z,4.45
2022-11-14T20:36:29.316Z,3.83
2022-11-14T20:38:59.305Z,3.38
2022-11-14T20:41:26.400Z,3.53
2022-11-14T20:43:53.331Z,3.22
2022-11-14T20:46:22.053Z,3.88
2022-11-14T20:48:49.854Z,3.33
2022-11-14T20:51:21.323Z,3.80
2022-11-14T20:53:50.208Z,3.25
2022-11-14T20:56:17.813Z,3.67
2022-11-14T20:58:46.856Z,3.47
2022-11-14T21:01:14.959Z,3.47
2022-11-14T21:03:42.515Z,2.88
2022-11-14T21:06:12.665Z,3.70
2022-11-14T21:08:40.482Z,2.97
2022-11-14T21:11:11.083Z,2.90
2022-11-14T21:13:59.080Z,2.92
2022-11-14T21:16:37.523Z,3.22
2022-11-14T21:19:05.891Z,3.53
2022-11-14T21:21:37.703Z,3.45
2022-11-14T21:24:05.573Z,2.92
2022-11-14T21:26:36.603Z,3.30
2022-11-14T21:29:09.336Z,2.80
2022-11-14T21:31:39.318Z,3.03
2022-11-14T21:34:18.347Z,3.00
2022-11-14T21:36:47.073Z,3.15
2022-11-14T21:39:16.408Z,2.95
2022-11-14T21:41:44.722Z,3.08
2022-11-14T21:44:13.812Z,2.80
2022-11-14T21:46:41.148Z,3.05
2022-11-14T21:49:08.393Z,2.35
2022-11-14T21:51:35.495Z,2.72
2022-11-14T21:54:06.726Z,2.97
2022-11-14T21:56:35.955Z,2.92
2022-11-14T21:59:16.087Z,2.83
2022-11-14T22:02:05.147Z,2.70
2022-11-14T22:04:32.962Z,2.40
2022-11-14T22:07:02.659Z,2.40
2022-11-14T22:09:30.145Z,2.85
2022-11-14T22:11:57.368Z,3.00
2022-11-14T22:14:24.462Z,3.10
2022-11-14T22:16:51.692Z,3.17
2022-11-14T22:19:19.217Z,2.83
2022-11-14T22:21:46.244Z,2.50
2022-11-14T22:24:13.319Z,2.83
2022-11-14T22:26:41.700Z,2.63
2022-11-14T22:29:09.087Z,3.05
2022-11-14T22:31:37.357Z,3.20
2022-11-14T22:34:04.790Z,2.80
2022-11-14T22:36:31.871Z,2.80
2022-11-14T22:38:58.977Z,3.20
2022-11-14T22:41:32.947Z,2.13
2022-11-14T22:44:01.510Z,3.00
2022-11-14T22:46:29.275Z,2.80
2022-11-14T22:48:56.957Z,2.40
2022-11-14T22:51:26.296Z,2.42
2022-11-14T22:53:55.519Z,2.40
2022-11-14T22:56:25.214Z,2.90
2022-11-14T22:58:52.506Z,2.75
2022-11-14T23:01:32.230Z,2.88
2022-11-14T23:04:01.932Z,2.70
2022-11-14T23:06:30.779Z,3.13
2022-11-14T23:08:58.349Z,2.50
2022-11-14T23:11:28.303Z,2.83
2022-11-14T23:13:57.044Z,2.83
2022-11-14T23:16:29.610Z,2.92
2022-11-14T23:18:59.038Z,2.97
2022-11-14T23:21:32.404Z,2.85
2022-11-14T23:24:04.750Z,2.40
2022-11-14T23:26:33.243Z,3.03
2022-11-14T23:29:00.856Z,2.90
2022-11-14T23:31:28.071Z,2.67
2022-11-14T23:33:56.375Z,2.35
2022-11-14T23:36:23.429Z,2.50
2022-11-14T23:38:53.684Z,2.92
2022-11-14T23:41:23.101Z,2.65
2022-11-14T23:43:50.341Z,3.42
2022-11-14T23:46:17.400Z,2.78
2022-11-14T23:48:44.445Z,2.63
2022-11-14T23:51:13.864Z,2.58
2022-11-14T23:53:41.574Z,2.60
2022-11-14T23:56:12.566Z,2.55
2022-11-14T23:58:39.607Z,2.60
